Stolt Ebony — MBAU9 — position and weather

sailwx.info

Track history (hours):
 
Tides and Currents Weather Stations Pressure Air Temp Water Temp Dewpoint Dewpoint Depression Visibility Wind Speed Wind Dir Waves Ship Positions

Stolt Ebony

Last reported at 2017-Oct-19 15:41 UTC. Time now 2017-Oct-20 12:43 UTC.
Position N 29°21' W 094°46'.

Length 185 m; draft 10.4 m.

Type: Tanker. MMSI: 232008101.

Date/timePositionNaut miles runAvg speedWind from/ knotsBaromVisibWave heightAir tempDewpointWater temp
2017-Oct-19 15:41N 29°21' W 094°46'212.2
2017-Oct-19 15:30N 29°22' W 094°48'611.7
2017-Oct-19 15:00N 29°27' W 094°51'510.9
2017-Oct-19 14:31N 29°32' W 094°54'510.6
2017-Oct-19 14:00N 29°36' W 094°57'3 6.6
2017-Oct-19 13:30N 29°37' W 095°01'0 1.0
2017-Oct-19 13:01N 29°37' W 095°01'0 0.0
2017-Oct-19 12:31N 29°37' W 095°01'0 0.0
2017-Oct-19 11:58N 29°37' W 095°01'0 0.0
2017-Oct-19 11:28N 29°37' W 095°01'0 0.0
2017-Oct-19 10:58N 29°37' W 095°01'0 0.0
2017-Oct-19 10:28N 29°37' W 095°01'0 0.0
2017-Oct-19 09:58N 29°37' W 095°01'0 0.0
2017-Oct-19 09:29N 29°37' W 095°01'0 0.0
2017-Oct-19 08:58N 29°37' W 095°01'0 0.0
2017-Oct-19 08:28N 29°37' W 095°01'0 0.0
2017-Oct-19 07:58N 29°37' W 095°01'0 0.0
2017-Oct-19 07:28N 29°37' W 095°01'0 0.0
2017-Oct-19 06:58N 29°37' W 095°01'0 0.0
2017-Oct-19 06:28N 29°37' W 095°01'0 0.0
2017-Oct-19 05:58N 29°37' W 095°01'0 0.0
2017-Oct-19 05:25N 29°37' W 095°01'0 0.0
2017-Oct-19 04:55N 29°37' W 095°01'0 0.0
2017-Oct-19 04:28N 29°37' W 095°01'0 0.0
2017-Oct-19 03:58N 29°37' W 095°01'0 0.0
2017-Oct-19 03:28N 29°37' W 095°01'0 0.0
2017-Oct-19 02:58N 29°37' W 095°01'0 0.0
2017-Oct-19 02:28N 29°37' W 095°01'0 0.0
2017-Oct-19 01:58N 29°37' W 095°01'0 0.0
2017-Oct-19 01:28N 29°37' W 095°01'0 0.0
2017-Oct-19 00:58N 29°37' W 095°01'0 0.0
2017-Oct-19 00:28N 29°37' W 095°01'0 0.0
2017-Oct-18 23:58N 29°37' W 095°01'0 0.0
2017-Oct-18 23:28N 29°37' W 095°01'0 1.0
2017-Oct-18 23:00N 29°37' W 095°01'4 7.1
2017-Oct-18 22:30N 29°36' W 094°57'612.2
2017-Oct-18 22:00N 29°31' W 094°53'11 7.1
2017-Oct-18 20:30N 29°21' W 094°48'611.2
2017-Oct-18 19:57N 29°27' W 094°51'511.5
2017-Oct-18 19:30N 29°31' W 094°53'611.5
2017-Oct-18 19:00N 29°36' W 094°57'510.3
2017-Oct-18 18:30N 29°41' W 094°59'4 7.6
2017-Oct-18 18:00N 29°44' W 095°02'3 6.7
2017-Oct-18 17:30N 29°45' W 095°06'1 0.1
2017-Oct-18 04:20N 29°45' W 095°06'1 3.1
2017-Oct-18 04:00N 29°46' W 095°05'4 7.9
2017-Oct-18 03:30N 29°44' W 095°02'4 8.8
2017-Oct-18 03:00N 29°40' W 094°59'510.8
2017-Oct-18 02:30N 29°35' W 094°56'611.1
2017-Oct-18 02:00N 29°30' W 094°53'10 0.5
2017-Oct-17 06:27N 29°22' W 094°48'511.3
2017-Oct-17 06:00N 29°26' W 094°50'612.4
2017-Oct-17 05:30N 29°32' W 094°53'611.8
2017-Oct-17 05:00N 29°37' W 094°57'510.6
2017-Oct-17 04:30N 29°42' W 094°59'4 7.4
2017-Oct-17 04:00N 29°44' W 095°03'3 6.1
2017-Oct-17 03:30N 29°45' W 095°06'3 6.2
2017-Oct-17 03:00N 29°44' W 095°10'3 5.4
2017-Oct-17 02:30N 29°44' W 095°13'2 4.9
2017-Oct-17 02:00N 29°44' W 095°15'1 0.1
2017-Oct-16 13:48N 29°43' W 095°16'0 0.3
2017-Oct-16 13:27N 29°44' W 095°16'2 4.7
2017-Oct-16 13:00N 29°43' W 095°14'2 4.9
2017-Oct-16 12:29N 29°45' W 095°11'3 6.3
2017-Oct-16 11:59N 29°44' W 095°08'3 6.2
2017-Oct-16 11:30N 29°46' W 095°05'4 8.2
2017-Oct-16 10:59N 29°43' W 095°01'5 9.8
2017-Oct-16 10:30N 29°39' W 094°58'612.3
2017-Oct-16 10:00N 29°34' W 094°55'712.5
2017-Oct-16 09:28N 29°28' W 094°51'8 0.6
2017-Oct-15 20:09N 29°21' W 094°47'311.6
2017-Oct-15 19:56N 29°23' W 094°49'512.1
2017-Oct-15 19:30N 29°28' W 094°51'612.3
2017-Oct-15 19:00N 29°33' W 094°55'611.7
2017-Oct-15 18:30N 29°38' W 094°58'5 9.8
2017-Oct-15 18:00N 29°42' W 095°01'4 7.5
2017-Oct-15 17:30N 29°45' W 095°04'2 0.0
2017-Oct-14 02:55N 29°45' W 095°06'0 0.8
2017-Oct-14 02:25N 29°45' W 095°06'3 6.3
2017-Oct-14 02:00N 29°44' W 095°03'4 7.1
2017-Oct-14 01:28N 29°42' W 094°60'5 9.9
2017-Oct-14 00:57N 29°37' W 094°57'512.0
2017-Oct-14 00:30N 29°32' W 094°54'  
Track history (hours):
 
Tides and Currents Weather Stations Pressure Air Temp Water Temp Dewpoint Dewpoint Depression Visibility Wind Speed Wind Dir Waves Ship Positions

Stolt Ebony

Last reported at 2017-Oct-19 15:41 UTC. Time now 2017-Oct-20 12:43 UTC.
Position N 29°21' W 094°46'.

Length 185 m; draft 10.4 m.

Type: Tanker. MMSI: 232008101.

Date/timePositionNaut miles runAvg speedWind from/ knotsBaromVisibWave heightAir tempDewpointWater temp
2017-Oct-19 15:41N 29°21' W 094°46'212.2
2017-Oct-19 15:30N 29°22' W 094°48'611.7
2017-Oct-19 15:00N 29°27' W 094°51'510.9
2017-Oct-19 14:31N 29°32' W 094°54'510.6
2017-Oct-19 14:00N 29°36' W 094°57'3 6.6
2017-Oct-19 13:30N 29°37' W 095°01'0 1.0
2017-Oct-19 13:01N 29°37' W 095°01'0 0.0
2017-Oct-19 12:31N 29°37' W 095°01'0 0.0
2017-Oct-19 11:58N 29°37' W 095°01'0 0.0
2017-Oct-19 11:28N 29°37' W 095°01'0 0.0
2017-Oct-19 10:58N 29°37' W 095°01'0 0.0
2017-Oct-19 10:28N 29°37' W 095°01'0 0.0
2017-Oct-19 09:58N 29°37' W 095°01'0 0.0
2017-Oct-19 09:29N 29°37' W 095°01'0 0.0
2017-Oct-19 08:58N 29°37' W 095°01'0 0.0
2017-Oct-19 08:28N 29°37' W 095°01'0 0.0
2017-Oct-19 07:58N 29°37' W 095°01'0 0.0
2017-Oct-19 07:28N 29°37' W 095°01'0 0.0
2017-Oct-19 06:58N 29°37' W 095°01'0 0.0
2017-Oct-19 06:28N 29°37' W 095°01'0 0.0
2017-Oct-19 05:58N 29°37' W 095°01'0 0.0
2017-Oct-19 05:25N 29°37' W 095°01'0 0.0
2017-Oct-19 04:55N 29°37' W 095°01'0 0.0
2017-Oct-19 04:28N 29°37' W 095°01'0 0.0
2017-Oct-19 03:58N 29°37' W 095°01'0 0.0
2017-Oct-19 03:28N 29°37' W 095°01'0 0.0
2017-Oct-19 02:58N 29°37' W 095°01'0 0.0
2017-Oct-19 02:28N 29°37' W 095°01'0 0.0
2017-Oct-19 01:58N 29°37' W 095°01'0 0.0
2017-Oct-19 01:28N 29°37' W 095°01'0 0.0
2017-Oct-19 00:58N 29°37' W 095°01'0 0.0
2017-Oct-19 00:28N 29°37' W 095°01'0 0.0
2017-Oct-18 23:58N 29°37' W 095°01'0 0.0
2017-Oct-18 23:28N 29°37' W 095°01'0 1.0
2017-Oct-18 23:00N 29°37' W 095°01'4 7.1
2017-Oct-18 22:30N 29°36' W 094°57'612.2
2017-Oct-18 22:00N 29°31' W 094°53'11 7.1
2017-Oct-18 20:30N 29°21' W 094°48'611.2
2017-Oct-18 19:57N 29°27' W 094°51'511.5
2017-Oct-18 19:30N 29°31' W 094°53'611.5
2017-Oct-18 19:00N 29°36' W 094°57'510.3
2017-Oct-18 18:30N 29°41' W 094°59'4 7.6
2017-Oct-18 18:00N 29°44' W 095°02'3 6.7
2017-Oct-18 17:30N 29°45' W 095°06'1 0.1
2017-Oct-18 04:20N 29°45' W 095°06'1 3.1
2017-Oct-18 04:00N 29°46' W 095°05'4 7.9
2017-Oct-18 03:30N 29°44' W 095°02'4 8.8
2017-Oct-18 03:00N 29°40' W 094°59'510.8
2017-Oct-18 02:30N 29°35' W 094°56'611.1
2017-Oct-18 02:00N 29°30' W 094°53'10 0.5
2017-Oct-17 06:27N 29°22' W 094°48'511.3
2017-Oct-17 06:00N 29°26' W 094°50'612.4
2017-Oct-17 05:30N 29°32' W 094°53'611.8
2017-Oct-17 05:00N 29°37' W 094°57'510.6
2017-Oct-17 04:30N 29°42' W 094°59'4 7.4
2017-Oct-17 04:00N 29°44' W 095°03'3 6.1
2017-Oct-17 03:30N 29°45' W 095°06'3 6.2
2017-Oct-17 03:00N 29°44' W 095°10'3 5.4
2017-Oct-17 02:30N 29°44' W 095°13'2 4.9
2017-Oct-17 02:00N 29°44' W 095°15'1 0.1
2017-Oct-16 13:48N 29°43' W 095°16'0 0.3
2017-Oct-16 13:27N 29°44' W 095°16'2 4.7
2017-Oct-16 13:00N 29°43' W 095°14'2 4.9
2017-Oct-16 12:29N 29°45' W 095°11'3 6.3
2017-Oct-16 11:59N 29°44' W 095°08'3 6.2
2017-Oct-16 11:30N 29°46' W 095°05'4 8.2
2017-Oct-16 10:59N 29°43' W 095°01'5 9.8
2017-Oct-16 10:30N 29°39' W 094°58'612.3
2017-Oct-16 10:00N 29°34' W 094°55'712.5
2017-Oct-16 09:28N 29°28' W 094°51'8 0.6
2017-Oct-15 20:09N 29°21' W 094°47'311.6
2017-Oct-15 19:56N 29°23' W 094°49'512.1
2017-Oct-15 19:30N 29°28' W 094°51'612.3
2017-Oct-15 19:00N 29°33' W 094°55'611.7
2017-Oct-15 18:30N 29°38' W 094°58'5 9.8
2017-Oct-15 18:00N 29°42' W 095°01'4 7.5
2017-Oct-15 17:30N 29°45' W 095°04'2 0.0
2017-Oct-14 02:55N 29°45' W 095°06'0 0.8
2017-Oct-14 02:25N 29°45' W 095°06'3 6.3
2017-Oct-14 02:00N 29°44' W 095°03'4 7.1
2017-Oct-14 01:28N 29°42' W 094°60'5 9.9
2017-Oct-14 00:57N 29°37' W 094°57'512.0
2017-Oct-14 00:30N 29°32' W 094°54'  

Dump ship's entire track history